Time;durP1;ratioP1;P1;durP2;ratioP2;P2;SDS_P1;SDS_P2;PMS_P1;PMS_P2;Temp;Humidity;BMP_temperature;BMP_pressure;BME280_temperature;BME280_humidity;BME280_pressure;Samples;Min_cycle;Max_cycle;Signal;HPM_P1;HPM_P2
2024/03/27 00:00:11;;;;;;;7.10;2.30;;;307.40;2304.00;;;;;;5093928;28;20053;-73
2024/03/27 00:02:37;;;;;;;7.22;2.28;;;307.40;2304.00;;;;;;5097186;28;20023;-73
2024/03/27 00:05:07;;;;;;;3.17;1.77;;;307.40;2304.00;;;;;;5099360;28;20055;-73
2024/03/27 00:07:33;;;;;;;6.68;2.42;;;307.30;2304.00;;;;;;5093633;28;20076;-71
2024/03/27 00:09:59;;;;;;;6.38;2.65;;;307.30;2304.00;;;;;;5090546;28;20036;-76
2024/03/27 00:12:25;;;;;;;4.68;2.15;;;307.30;2304.00;;;;;;5104423;28;20051;-72
2024/03/27 00:14:51;;;;;;;8.75;2.67;;;307.20;2304.00;;;;;;5093257;28;20035;-71
2024/03/27 00:17:17;;;;;;;4.07;2.47;;;307.20;2304.00;;;;;;5089649;28;20020;-71
2024/03/27 00:19:43;;;;;;;5.70;2.35;;;307.20;2304.00;;;;;;5091117;28;20027;-72
2024/03/27 00:22:08;;;;;;;6.38;2.45;;;307.20;2304.00;;;;;;5087862;28;20032;-73
2024/03/27 00:24:36;;;;;;;5.63;2.20;;;307.20;2304.00;;;;;;5096565;28;20394;-71
2024/03/27 00:27:03;;;;;;;5.10;2.60;;;307.20;2304.00;;;;;;5083869;28;20678;-71
2024/03/27 00:29:29;;;;;;;9.77;3.33;;;307.20;2304.00;;;;;;5099958;28;20036;-71
2024/03/27 00:31:55;;;;;;;4.90;2.40;;;307.20;2304.00;;;;;;5093414;28;20107;-71
2024/03/27 00:34:21;;;;;;;5.57;2.72;;;307.20;2304.00;;;;;;5102973;28;20499;-73
2024/03/27 00:36:47;;;;;;;6.70;2.95;;;307.20;2304.00;;;;;;5092599;28;20028;-72
2024/03/27 00:39:13;;;;;;;4.75;2.95;;;282.50;2278.40;;;;;;5086340;28;20027;-72
2024/03/27 00:41:38;;;;;;;5.20;2.60;;;282.50;2278.40;;;;;;5097125;28;20078;-72
2024/03/27 00:44:04;;;;;;;;;;;282.40;2278.40;;;;;;5094206;28;20034;-72
2024/03/27 00:46:30;;;;;;;3.83;2.05;;;282.40;2278.40;;;;;;5102265;28;19991;-72
2024/03/27 00:48:56;;;;;;;8.35;3.05;;;282.40;2278.40;;;;;;5095972;28;20071;-73
2024/03/27 00:51:22;;;;;;;5.18;2.30;;;282.40;2278.40;;;;;;5083024;28;20556;-73
2024/03/27 00:53:48;;;;;;;5.57;2.88;;;282.20;2278.40;;;;;;5073502;28;20024;-73
2024/03/27 00:56:14;;;;;;;6.10;3.00;;;282.30;2278.40;;;;;;5074059;28;20032;-73
2024/03/27 00:58:40;;;;;;;6.57;2.70;;;282.20;2278.40;;;;;;5073761;28;20385;-73
2024/03/27 01:01:06;;;;;;;4.15;2.60;;;282.20;2278.40;;;;;;5073936;28;20032;-74
2024/03/27 01:03:32;;;;;;;7.05;3.35;;;282.30;2278.40;;;;;;5073182;28;20020;-73
2024/03/27 01:05:58;;;;;;;5.50;2.35;;;282.20;2278.40;;;;;;5073918;28;20059;-74
2024/03/27 01:08:23;;;;;;;;;;;282.30;2278.40;;;;;;5074118;28;20036;-74
2024/03/27 01:10:51;;;;;;;7.40;2.67;;;282.30;2278.40;;;;;;5073514;28;19981;-73
2024/03/27 01:13:20;;;;;;;6.40;2.85;;;282.50;2278.40;;;;;;5073223;28;20551;-73
2024/03/27 01:15:49;;;;;;;10.02;3.58;;;282.30;2278.40;;;;;;5073793;28;20051;-73
2024/03/27 01:18:16;;;;;;;6.90;2.85;;;282.20;2278.40;;;;;;5073462;28;20028;-73
2024/03/27 01:20:43;;;;;;;5.35;2.53;;;307.30;2304.00;;;;;;5073532;28;20020;-73
2024/03/27 01:23:09;;;;;;;7.88;2.88;;;282.30;2278.40;;;;;;5073419;28;20474;-73
2024/03/27 01:25:36;;;;;;;5.00;3.33;;;282.30;2278.40;;;;;;5073737;28;20074;-72
2024/03/27 01:28:03;;;;;;;5.97;2.65;;;282.30;2278.40;;;;;;5074742;28;20059;-73
2024/03/27 01:30:29;;;;;;;5.85;2.60;;;282.30;2278.40;;;;;;5076105;28;20029;-73
2024/03/27 01:32:55;;;;;;;2.83;2.25;;;282.30;2278.40;;;;;;5074756;28;20028;-73
2024/03/27 01:35:21;;;;;;;4.68;2.20;;;282.20;2278.40;;;;;;5073391;28;20024;-73
2024/03/27 01:37:47;;;;;;;7.10;2.28;;;282.20;2278.40;;;;;;5073372;28;20031;-73
2024/03/27 01:40:13;;;;;;;5.93;2.53;;;282.20;2278.40;;;;;;5072827;28;20027;-72
2024/03/27 01:42:39;;;;;;;6.97;2.40;;;282.20;2278.40;;;;;;5073533;28;20029;-74
2024/03/27 01:45:05;;;;;;;8.27;2.35;;;282.20;2278.40;;;;;;5073077;28;20021;-73
2024/03/27 01:47:32;;;;;;;4.78;2.70;;;282.10;2278.40;;;;;;5073193;28;20097;-73
2024/03/27 01:49:59;;;;;;;6.13;2.67;;;282.20;2278.40;;;;;;5073024;28;20034;-74
2024/03/27 01:52:26;;;;;;;7.43;2.50;;;282.20;2278.40;;;;;;5073030;28;20120;-73
2024/03/27 01:54:52;;;;;;;4.13;2.08;;;282.20;2278.40;;;;;;5073025;28;20062;-74
2024/03/27 01:57:20;;;;;;;5.85;2.67;;;282.10;2278.40;;;;;;5073113;28;20013;-73
2024/03/27 01:59:47;;;;;;;3.45;1.95;;;282.10;2278.40;;;;;;5072928;28;20024;-73
2024/03/27 02:02:14;;;;;;;4.38;2.03;;;282.10;2278.40;;;;;;5071153;28;20390;-73
2024/03/27 02:04:39;;;;;;;3.63;2.10;;;282.00;2278.40;;;;;;5073035;28;20033;-73
2024/03/27 02:07:06;;;;;;;4.50;2.40;;;282.00;2278.40;;;;;;5072922;28;20031;-74
2024/03/27 02:09:32;;;;;;;5.45;2.40;;;282.00;2278.40;;;;;;5072977;28;20050;-73
2024/03/27 02:11:58;;;;;;;3.90;2.17;;;282.00;2278.40;;;;;;5072851;28;20522;-72
2024/03/27 02:14:24;;;;;;;6.43;2.28;;;281.90;2278.40;;;;;;5073388;28;20074;-73
2024/03/27 02:16:50;;;;;;;5.93;2.22;;;281.80;2278.40;;;;;;5077258;28;20017;-74
2024/03/27 02:19:16;;;;;;;5.00;2.17;;;281.80;2278.40;;;;;;5076876;28;20428;-72
2024/03/27 02:21:41;;;;;;;4.53;2.40;;;281.70;2278.40;;;;;;5077047;28;20466;-74
2024/03/27 02:24:13;;;;;;;5.95;2.30;;;281.60;2278.40;;;;;;5077439;28;20025;-75
2024/03/27 02:26:41;;;;;;;7.07;2.95;;;256.90;2252.80;;;;;;5076791;28;20035;-74
2024/03/27 02:29:07;;;;;;;5.00;2.28;;;256.80;2252.80;;;;;;5076587;28;20037;-74
2024/03/27 02:31:33;;;;;;;7.68;3.20;;;256.80;2252.80;;;;;;5076856;28;20099;-74
2024/03/27 02:33:59;;;;;;;11.13;2.65;;;256.80;2252.80;;;;;;5076829;28;20103;-74
2024/03/27 02:36:25;;;;;;;7.57;2.85;;;256.60;2252.80;;;;;;5075483;28;20541;-73
2024/03/27 02:38:51;;;;;;;4.95;2.67;;;256.60;2252.80;;;;;;5076744;28;20112;-74
2024/03/27 02:41:17;;;;;;;4.60;2.55;;;256.50;2252.80;;;;;;5076648;28;20095;-73
2024/03/27 02:43:43;;;;;;;5.00;2.83;;;256.50;2252.80;;;;;;5076510;28;20095;-72
2024/03/27 02:46:08;;;;;;;6.30;2.45;;;256.50;2252.80;;;;;;5076406;28;20420;-73
2024/03/27 02:48:34;;;;;;;;;;;256.50;2252.80;;;;;;5076877;28;20452;-74
2024/03/27 02:51:00;;;;;;;6.35;2.90;;;256.40;2252.80;;;;;;5076644;28;19942;-73
2024/03/27 02:53:25;;;;;;;;;;;256.40;2252.80;;;;;;5076997;28;20077;-73
2024/03/27 02:55:52;;;;;;;5.15;2.80;;;256.40;2252.80;;;;;;5076137;28;19908;-73
2024/03/27 02:58:18;;;;;;;5.70;2.92;;;256.30;2252.80;;;;;;5076206;28;20020;-74
2024/03/27 03:00:45;;;;;;;5.32;3.20;;;256.40;2252.80;;;;;;5076109;28;20025;-73
2024/03/27 03:03:12;;;;;;;5.93;3.15;;;256.30;2252.80;;;;;;5074798;28;20090;-74
2024/03/27 03:05:41;;;;;;;7.10;2.85;;;256.40;2252.80;;;;;;5093737;28;20024;-74
2024/03/27 03:08:08;;;;;;;4.50;2.10;;;256.40;2252.80;;;;;;5096448;28;20065;-74
2024/03/27 03:10:34;;;;;;;4.05;2.15;;;256.40;2252.80;;;;;;5096248;28;20024;-73
2024/03/27 03:13:00;;;;;;;9.60;3.55;;;256.40;2252.80;;;;;;5085035;28;20052;-73
2024/03/27 03:15:26;;;;;;;6.25;2.78;;;256.40;2252.80;;;;;;5075508;28;20016;-73
2024/03/27 03:17:52;;;;;;;6.10;2.60;;;256.40;2252.80;;;;;;5075995;28;20048;-72
2024/03/27 03:20:18;;;;;;;;;;;256.40;2252.80;;;;;;5076268;28;20025;-74
2024/03/27 03:22:44;;;;;;;4.65;2.45;;;256.40;2252.80;;;;;;5075915;28;19913;-73
2024/03/27 03:25:11;;;;;;;5.05;2.00;;;256.40;2252.80;;;;;;5075005;28;20105;-72
2024/03/27 03:27:37;;;;;;;5.63;3.05;;;256.40;2252.80;;;;;;5075644;28;20044;-73
2024/03/27 03:30:03;;;;;;;6.13;3.03;;;256.40;2252.80;;;;;;5075548;28;20489;-73
2024/03/27 03:32:29;;;;;;;3.55;2.17;;;256.40;2252.80;;;;;;5075810;28;20446;-72
2024/03/27 03:34:55;;;;;;;4.53;2.53;;;256.40;2252.80;;;;;;5075684;28;20099;-73
2024/03/27 03:37:21;;;;;;;5.82;1.73;;;256.40;2252.80;;;;;;5075609;28;20056;-74
2024/03/27 03:39:47;;;;;;;;;;;256.40;2252.80;;;;;;5075761;28;20028;-72
2024/03/27 03:42:13;;;;;;;4.80;2.50;;;256.40;2252.80;;;;;;5075460;28;19908;-73
2024/03/27 03:44:39;;;;;;;4.70;2.15;;;256.50;2252.80;;;;;;5075301;28;20034;-74
2024/03/27 03:47:05;;;;;;;7.57;2.60;;;256.50;2252.80;;;;;;5075352;28;20096;-73
2024/03/27 03:49:31;;;;;;;3.95;2.65;;;256.40;2252.80;;;;;;5075283;28;20032;-73
2024/03/27 03:51:57;;;;;;;3.65;2.00;;;256.40;2252.80;;;;;;5075319;28;20078;-73
2024/03/27 03:54:23;;;;;;;7.57;2.50;;;256.30;2252.80;;;;;;5075182;28;20024;-72
2024/03/27 03:56:49;;;;;;;4.20;2.67;;;256.40;2252.80;;;;;;5075122;28;20066;-72
2024/03/27 03:59:15;;;;;;;4.30;2.42;;;256.40;2252.80;;;;;;5074933;28;20079;-73
2024/03/27 04:01:41;;;;;;;7.72;2.35;;;256.40;2252.80;;;;;;5074816;28;20510;-72
2024/03/27 04:04:07;;;;;;;4.55;2.38;;;256.40;2252.80;;;;;;5075076;28;20069;-73
2024/03/27 04:06:32;;;;;;;;;;;256.50;2252.80;;;;;;5075405;28;20024;-72
2024/03/27 04:08:58;;;;;;;4.57;2.33;;;256.50;2252.80;;;;;;5074845;28;19908;-72
2024/03/27 04:11:24;;;;;;;4.25;2.40;;;256.50;2252.80;;;;;;5074740;28;20560;-72
2024/03/27 04:13:51;;;;;;;7.60;3.20;;;256.50;2252.80;;;;;;5092534;28;20469;-73
2024/03/27 04:16:17;;;;;;;5.05;2.08;;;256.60;2252.80;;;;;;5094896;28;20020;-72
2024/03/27 04:18:43;;;;;;;4.95;2.50;;;256.60;2252.80;;;;;;5095041;28;20525;-73
2024/03/27 04:21:09;;;;;;;4.32;2.10;;;256.60;2252.80;;;;;;5095134;28;20035;-73
2024/03/27 04:23:35;;;;;;;5.20;2.78;;;256.70;2252.80;;;;;;5094864;28;20025;-73
2024/03/27 04:26:01;;;;;;;5.40;2.10;;;256.70;2252.80;;;;;;5094824;28;20078;-73
2024/03/27 04:28:27;;;;;;;5.88;2.53;;;256.70;2252.80;;;;;;5094704;28;20035;-72
2024/03/27 04:30:53;;;;;;;5.30;2.50;;;256.70;2252.80;;;;;;5094623;28;20054;-73
2024/03/27 04:33:20;;;;;;;5.72;2.25;;;256.80;2252.80;;;;;;5094770;28;20051;-73
2024/03/27 04:35:46;;;;;;;5.72;2.53;;;256.80;2252.80;;;;;;5093541;28;20028;-72
2024/03/27 04:38:12;;;;;;;4.43;2.45;;;256.80;2252.80;;;;;;5083145;28;20078;-73
2024/03/27 04:40:38;;;;;;;7.05;2.67;;;256.80;2252.80;;;;;;5094895;28;20350;-73
2024/03/27 04:43:04;;;;;;;5.45;2.33;;;256.80;2252.80;;;;;;5089307;28;20039;-73
2024/03/27 04:45:30;;;;;;;7.93;2.78;;;256.80;2252.80;;;;;;5091415;28;20094;-73
2024/03/27 04:47:56;;;;;;;3.75;2.55;;;256.80;2252.80;;;;;;5097003;28;20110;-73
2024/03/27 04:50:23;;;;;;;3.83;2.17;;;256.80;2252.80;;;;;;5093586;28;20036;-72
2024/03/27 04:52:49;;;;;;;4.80;2.60;;;256.60;2252.80;;;;;;5095792;28;20020;-72
2024/03/27 04:55:15;;;;;;;10.02;3.03;;;256.70;2252.80;;;;;;5111657;28;20051;-72
2024/03/27 04:57:41;;;;;;;7.85;2.70;;;256.70;2252.80;;;;;;5082312;28;20035;-72
2024/03/27 05:00:08;;;;;;;4.05;2.65;;;256.70;2252.80;;;;;;5088172;28;20032;-73
2024/03/27 05:02:34;;;;;;;5.50;2.70;;;281.60;2278.40;;;;;;5094567;28;20024;-73
2024/03/27 05:05:00;;;;;;;4.10;2.78;;;256.60;2252.80;;;;;;5086242;28;20036;-73
2024/03/27 05:07:26;;;;;;;4.68;2.35;;;256.60;2252.80;;;;;;5095589;28;20032;-73
2024/03/27 05:09:52;;;;;;;3.67;2.13;;;256.60;2252.80;;;;;;5084734;28;20086;-74
2024/03/27 05:12:17;;;;;;;4.95;2.75;;;256.50;2252.80;;;;;;5081871;28;20032;-72
2024/03/27 05:14:43;;;;;;;4.32;2.50;;;256.50;2252.80;;;;;;5081094;28;20032;-72
2024/03/27 05:17:10;;;;;;;6.82;2.83;;;256.60;2252.80;;;;;;5089131;28;20066;-74
2024/03/27 05:19:37;;;;;;;5.85;3.20;;;256.60;2252.80;;;;;;5097068;28;20419;-77
2024/03/27 05:22:03;;;;;;;7.32;3.40;;;256.60;2252.80;;;;;;5082807;28;20026;-72
2024/03/27 05:24:29;;;;;;;6.22;3.70;;;256.60;2252.80;;;;;;5092077;28;20032;-75
2024/03/27 05:26:55;;;;;;;5.22;2.78;;;256.60;2252.80;;;;;;5080115;28;20524;-72
2024/03/27 05:29:21;;;;;;;9.13;3.00;;;256.60;2252.80;;;;;;5089563;28;20533;-72
2024/03/27 05:31:57;;;;;;;4.38;2.63;;;256.70;2252.80;;;;;;5094462;28;20054;-72
2024/03/27 05:34:23;;;;;;;4.35;2.58;;;256.70;2252.80;;;;;;5083414;28;20052;-73
2024/03/27 05:36:49;;;;;;;6.05;3.08;;;256.80;2252.80;;;;;;5084533;28;20532;-72
2024/03/27 05:39:15;;;;;;;8.07;3.50;;;256.90;2252.80;;;;;;5107835;28;20019;-72
2024/03/27 05:41:43;;;;;;;5.05;2.90;;;281.60;2278.40;;;;;;5095693;28;20050;-72
2024/03/27 05:44:10;;;;;;;8.07;2.80;;;281.60;2278.40;;;;;;5092969;28;20495;-72
2024/03/27 05:46:37;;;;;;;6.82;3.22;;;281.70;2278.40;;;;;;5087686;28;20073;-72
2024/03/27 05:49:03;;;;;;;8.27;3.30;;;281.80;2278.40;;;;;;5091035;28;20166;-74
2024/03/27 05:51:31;;;;;;;11.55;3.33;;;281.80;2278.40;;;;;;5094459;28;20028;-72
2024/03/27 05:53:57;;;;;;;5.18;3.08;;;282.00;2278.40;;;;;;5094477;28;20028;-73
2024/03/27 05:56:23;;;;;;;4.97;2.72;;;282.10;2278.40;;;;;;5106386;28;20028;-74
2024/03/27 05:58:50;;;;;;;6.50;4.47;;;282.10;2278.40;;;;;;5113627;28;20019;-73
2024/03/27 06:01:16;;;;;;;5.93;2.70;;;282.00;2278.40;;;;;;5113553;28;20162;-73
2024/03/27 06:03:52;;;;;;;5.53;2.92;;;282.10;2278.40;;;;;;5113774;28;20555;-74
2024/03/27 06:06:18;;;;;;;5.13;3.25;;;282.00;2278.40;;;;;;5113227;28;20098;-73
2024/03/27 06:08:46;;;;;;;7.65;3.63;;;282.10;2278.40;;;;;;5092835;28;20028;-73
2024/03/27 06:11:13;;;;;;;6.78;3.30;;;282.10;2278.40;;;;;;5092384;28;20093;-75
2024/03/27 06:13:39;;;;;;;6.07;3.85;;;282.20;2278.40;;;;;;5080435;28;20040;-73
2024/03/27 06:16:05;;;;;;;5.10;2.95;;;282.20;2278.40;;;;;;5093718;28;20028;-73
2024/03/27 06:18:32;;;;;;;5.00;3.10;;;282.20;2278.40;;;;;;5113152;28;20020;-74
2024/03/27 06:20:57;;;;;;;8.85;2.28;;;282.20;2278.40;;;;;;5113679;28;20020;-73
2024/03/27 06:23:23;;;;;;;6.82;3.25;;;282.30;2278.40;;;;;;5113217;28;20035;-73
2024/03/27 06:25:56;;;;;;;4.07;2.67;;;282.40;2278.40;;;;;;5097935;28;20035;-72
2024/03/27 06:28:22;;;;;;;4.22;2.70;;;282.50;2278.40;;;;;;5092391;28;20063;-72
2024/03/27 06:30:48;;;;;;;6.40;3.25;;;307.30;2304.00;;;;;;5091907;28;20032;-73
2024/03/27 06:33:15;;;;;;;8.00;3.10;;;307.40;2304.00;;;;;;5092944;28;20526;-73
2024/03/27 06:35:42;;;;;;;8.05;2.88;;;307.40;2304.00;;;;;;5108542;28;20026;-73
2024/03/27 06:38:08;;;;;;;5.93;2.80;;;307.50;2304.00;;;;;;5094925;28;20028;-73
2024/03/27 06:40:34;;;;;;;5.00;2.95;;;307.60;2304.00;;;;;;5090679;28;20024;-73
2024/03/27 06:43:00;;;;;;;5.25;3.17;;;307.70;2304.00;;;;;;5112778;28;20098;-72
2024/03/27 06:45:26;;;;;;;5.82;2.40;;;308.00;2304.00;;;;;;5099076;28;20225;-75
2024/03/27 06:47:52;;;;;;;5.63;2.90;;;332.80;2329.60;;;;;;5112832;28;20472;-73
2024/03/27 06:50:17;;;;;;;6.00;2.67;;;332.80;2329.60;;;;;;5113070;28;20031;-73
2024/03/27 06:52:45;;;;;;;10.63;2.85;;;308.10;2304.00;;;;;;5112353;28;20019;-73
2024/03/27 06:55:12;;;;;;;6.07;3.10;;;;;;;;;;5112141;28;20027;-73
2024/03/27 06:57:37;;;;;;;12.98;2.85;;;333.10;2329.60;;;;;;5112864;28;20020;-73
2024/03/27 07:00:04;;;;;;;6.07;2.78;;;333.20;2329.60;;;;;;5110406;28;20038;-73
2024/03/27 07:02:30;;;;;;;6.00;2.70;;;333.20;2329.60;;;;;;5105436;28;20073;-72
2024/03/27 07:04:56;;;;;;;6.60;2.97;;;333.40;2329.60;;;;;;5099979;28;20024;-72
2024/03/27 07:07:22;;;;;;;4.75;3.08;;;358.40;2329.60;;;;;;5105209;28;20023;-72
2024/03/27 07:09:48;;;;;;;8.50;2.85;;;358.40;2329.60;;;;;;5100244;28;20063;-72
2024/03/27 07:12:14;;;;;;;5.82;2.75;;;358.50;2329.60;;;;;;5100426;28;20064;-74
2024/03/27 07:14:40;;;;;;;7.82;3.13;;;358.50;2329.60;;;;;;5093977;28;20024;-73
2024/03/27 07:17:06;;;;;;;4.47;2.55;;;358.70;2329.60;;;;;;5075581;28;20019;-73
2024/03/27 07:19:32;;;;;;;4.43;2.67;;;358.80;2329.60;;;;;;5089110;28;20109;-73
2024/03/27 07:21:58;;;;;;;5.63;2.83;;;358.70;2329.60;;;;;;5085305;28;20091;-73
2024/03/27 07:24:23;;;;;;;7.03;2.58;;;358.90;2329.60;;;;;;5095349;28;20028;-74
2024/03/27 07:26:57;;;;;;;7.35;2.90;;;358.90;2329.60;;;;;;5095353;28;20393;-75
2024/03/27 07:29:23;;;;;;;5.18;2.80;;;359.00;2329.60;;;;;;5081926;28;20496;-76
2024/03/27 07:31:49;;;;;;;7.18;3.05;;;359.30;2329.60;;;;;;5067889;28;20020;-74
2024/03/27 07:34:15;;;;;;;5.25;2.70;;;384.00;2329.60;;;;;;5075216;28;20024;-73
2024/03/27 07:36:41;;;;;;;6.25;3.10;;;359.00;2329.60;;;;;;5073752;28;20476;-75
2024/03/27 07:39:07;;;;;;;7.30;2.75;;;359.20;2329.60;;;;;;5073732;28;20021;-73
2024/03/27 07:41:33;;;;;;;6.55;2.90;;;359.20;2329.60;;;;;;5095663;28;20016;-73
2024/03/27 07:43:59;;;;;;;2.58;1.85;;;359.30;2329.60;;;;;;5089227;28;20013;-74
2024/03/27 07:46:24;;;;;;;8.75;3.10;;;384.00;2329.60;;;;;;5064800;28;20105;-73
2024/03/27 07:48:52;;;;;;;6.25;2.58;;;384.20;2329.60;;;;;;5078268;28;20077;-73
2024/03/27 07:51:18;;;;;;;5.45;2.83;;;384.40;2329.60;;;;;;5077069;28;20389;-73
2024/03/27 07:53:44;;;;;;;5.28;2.70;;;384.20;2329.60;;;;;;5094419;28;20478;-73
2024/03/27 07:56:10;;;;;;;6.13;2.58;;;384.30;2329.60;;;;;;5094911;28;20081;-74
2024/03/27 07:58:36;;;;;;;6.60;3.15;;;384.40;2329.60;;;;;;5064800;28;20066;-74
2024/03/27 08:01:02;;;;;;;6.18;2.38;;;384.60;2329.60;;;;;;5085045;28;20099;-73
2024/03/27 08:03:30;;;;;;;6.50;2.80;;;384.60;2329.60;;;;;;5080763;28;20074;-75
2024/03/27 08:05:56;;;;;;;4.97;2.53;;;384.70;2329.60;;;;;;5095181;28;20051;-73
2024/03/27 08:08:22;;;;;;;4.43;2.67;;;384.70;2329.60;;;;;;5078132;28;20012;-74
2024/03/27 08:10:58;;;;;;;7.72;2.88;;;384.70;2329.60;;;;;;5085110;28;20039;-74
2024/03/27 08:13:24;;;;;;;3.58;2.10;;;384.90;2329.60;;;;;;5108918;28;20071;-74
2024/03/27 08:15:50;;;;;;;5.93;2.35;;;409.60;2355.20;;;;;;5115519;28;20074;-73
2024/03/27 08:18:17;;;;;;;5.45;2.80;;;409.90;2355.20;;;;;;5101096;28;20019;-74
2024/03/27 08:20:51;;;;;;;5.95;2.47;;;410.20;2355.20;;;;;;5102381;28;20066;-73
2024/03/27 08:23:17;;;;;;;6.63;2.72;;;410.10;2355.20;;;;;;5094419;28;20089;-75
2024/03/27 08:25:43;;;;;;;4.43;2.17;;;410.00;2355.20;;;;;;5082588;28;20474;-72
2024/03/27 08:28:09;;;;;;;3.28;1.88;;;409.90;2355.20;;;;;;5107280;28;20039;-74
2024/03/27 08:30:35;;;;;;;5.78;3.00;;;410.10;2355.20;;;;;;5106530;28;20039;-75
2024/03/27 08:33:00;;;;;;;8.30;3.53;;;410.30;2355.20;;;;;;5114250;28;20453;-75
2024/03/27 08:35:26;;;;;;;7.70;2.80;;;410.50;2355.20;;;;;;5084751;28;20028;-74
2024/03/27 08:37:52;;;;;;;7.20;2.40;;;435.30;2355.20;;;;;;5108023;28;20132;-75
2024/03/27 08:40:18;;;;;;;3.97;2.20;;;410.50;2355.20;;;;;;5076460;28;20038;-75
2024/03/27 08:42:44;;;;;;;4.10;2.75;;;410.50;2355.20;;;;;;5098933;28;20514;-75
2024/03/27 08:45:10;;;;;;;6.10;3.00;;;435.30;2355.20;;;;;;5114598;28;20023;-74
2024/03/27 08:47:35;;;;;;;5.38;2.92;;;435.30;2355.20;;;;;;5109498;28;20028;-81
2024/03/27 08:50:01;;;;;;;5.07;2.60;;;410.40;2355.20;;;;;;5087062;28;20054;-75
2024/03/27 08:52:27;;;;;;;2.90;1.60;;;410.10;2355.20;;;;;;5082515;28;20157;-75
2024/03/27 08:54:56;;;;;;;14.88;4.47;;;409.70;2355.20;;;;;;5091195;28;20043;-73
2024/03/27 08:57:22;;;;;;;4.22;2.53;;;409.90;2355.20;;;;;;5094319;28;20024;-75
2024/03/27 08:59:47;;;;;;;7.05;3.13;;;410.30;2355.20;;;;;;5094536;28;20031;-74
2024/03/27 09:02:13;;;;;;;9.60;3.42;;;435.20;2355.20;;;;;;5113969;28;20094;-76
2024/03/27 09:04:39;;;;;;;6.03;3.00;;;435.50;2355.20;;;;;;5114167;28;20019;-75
2024/03/27 09:07:05;;;;;;;5.28;2.92;;;435.70;2355.20;;;;;;5114507;28;20047;-75
2024/03/27 09:09:31;;;;;;;5.55;2.72;;;436.10;2355.20;;;;;;5083193;28;20477;-76
2024/03/27 09:11:57;;;;;;;3.70;2.30;;;436.10;2355.20;;;;;;5089769;28;20445;-75
2024/03/27 09:14:22;;;;;;;4.90;2.83;;;435.90;2355.20;;;;;;5077605;28;20023;-75
2024/03/27 09:16:48;;;;;;;5.50;2.70;;;436.00;2355.20;;;;;;5095038;28;20020;-75
2024/03/27 09:19:14;;;;;;;4.63;2.97;;;436.10;2355.20;;;;;;5107920;28;20026;-76
2024/03/27 09:21:41;;;;;;;6.40;2.33;;;436.10;2355.20;;;;;;5114210;28;20164;-75
2024/03/27 09:24:08;;;;;;;4.65;2.75;;;435.80;2355.20;;;;;;5113512;28;20532;-74
2024/03/27 09:26:34;;;;;;;8.73;3.03;;;435.60;2355.20;;;;;;5080290;28;20024;-75
2024/03/27 09:29:00;;;;;;;5.78;2.67;;;435.70;2355.20;;;;;;5075431;28;20499;-75
2024/03/27 09:31:26;;;;;;;5.38;2.95;;;435.90;2355.20;;;;;;5113729;28;20019;-75
2024/03/27 09:33:52;;;;;;;4.05;2.55;;;436.10;2355.20;;;;;;5099864;28;20050;-75
2024/03/27 09:36:22;;;;;;;6.30;3.10;;;436.00;2355.20;;;;;;5100864;28;20022;-75
2024/03/27 09:38:48;;;;;;;4.15;2.65;;;460.80;2380.80;;;;;;5100190;28;20380;-75
2024/03/27 09:41:14;;;;;;;5.22;2.45;;;461.10;2380.80;;;;;;5113099;28;20070;-75
2024/03/27 09:43:43;;;;;;;7.40;3.05;;;461.10;2380.80;;;;;;5100115;28;20469;-74
2024/03/27 09:46:10;;;;;;;4.93;2.80;;;461.10;2380.80;;;;;;5096779;28;20012;-74
2024/03/27 09:48:42;;;;;;;5.40;2.88;;;461.20;2380.80;;;;;;5103225;28;20019;-75
2024/03/27 09:51:09;;;;;;;7.55;4.22;;;461.00;2380.80;;;;;;5095194;28;20453;-74
2024/03/27 09:53:43;;;;;;;7.22;3.72;;;461.20;2380.80;;;;;;5085860;28;20028;-75
2024/03/27 09:56:12;;;;;;;5.45;2.50;;;461.50;2380.80;;;;;;5113799;28;20411;-75
2024/03/27 09:58:38;;;;;;;5.78;2.95;;;461.40;2380.80;;;;;;5109521;28;20020;-75
2024/03/27 10:01:04;;;;;;;6.97;3.17;;;461.40;2380.80;;;;;;5093032;28;20035;-74
2024/03/27 10:03:30;;;;;;;9.55;3.63;;;461.40;2380.80;;;;;;5110606;28;20381;-75
2024/03/27 10:05:58;;;;;;;9.27;3.65;;;461.60;2380.80;;;;;;5102598;28;20028;-74
2024/03/27 10:08:27;;;;;;;6.15;3.33;;;461.50;2380.80;;;;;;5110847;28;20026;-75
2024/03/27 10:10:56;;;;;;;5.10;2.22;;;486.40;2380.80;;;;;;5101473;28;20032;-74
2024/03/27 10:13:29;;;;;;;7.13;2.75;;;486.60;2380.80;;;;;;5052677;28;20135;-77
2024/03/27 10:15:55;;;;;;;7.70;2.50;;;486.50;2380.80;;;;;;5093012;28;20607;-74
2024/03/27 10:18:21;;;;;;;8.35;3.10;;;486.60;2380.80;;;;;;5079332;28;20039;-74
2024/03/27 10:20:47;;;;;;;7.68;3.42;;;486.70;2380.80;;;;;;5079503;28;20396;-74
2024/03/27 10:23:13;;;;;;;5.70;2.90;;;486.40;2380.80;;;;;;5059445;28;20021;-75
2024/03/27 10:25:40;;;;;;;5.72;2.85;;;461.50;2380.80;;;;;;5059334;28;20037;-74
2024/03/27 10:28:10;;;;;;;6.18;3.25;;;461.30;2380.80;;;;;;5059638;28;20505;-75
2024/03/27 10:30:39;;;;;;;6.63;3.47;;;461.60;2380.80;;;;;;5072946;28;20032;-74
2024/03/27 10:33:05;;;;;;;6.32;2.42;;;486.60;2380.80;;;;;;5072634;28;20099;-74
2024/03/27 10:35:33;;;;;;;7.85;4.40;;;486.40;2380.80;;;;;;5086322;28;20020;-76
2024/03/27 10:37:59;;;;;;;7.72;3.25;;;486.70;2380.80;;;;;;5068235;28;20021;-75
2024/03/27 10:40:26;;;;;;;9.05;3.70;;;486.90;2355.20;;;;;;5055399;28;20027;-74
2024/03/27 10:43:06;;;;;;;9.45;3.15;;;486.90;2355.20;;;;;;5079488;28;20053;-74
2024/03/27 10:45:36;;;;;;;7.28;2.65;;;486.70;2304.00;;;;;;5073874;28;20067;-75
2024/03/27 10:48:03;;;;;;;5.10;2.92;;;486.50;2355.20;;;;;;5058375;28;20025;-75
2024/03/27 10:50:32;;;;;;;8.27;3.20;;;486.40;2380.80;;;;;;5080770;28;20036;-75
2024/03/27 10:53:00;;;;;;;4.35;2.60;;;486.50;2355.20;;;;;;5097072;28;20457;-75
2024/03/27 10:55:27;;;;;;;7.00;2.50;;;486.40;2380.80;;;;;;5082458;28;20393;-74
2024/03/27 10:57:55;;;;;;;10.50;4.13;;;486.40;2380.80;;;;;;5068695;28;20545;-75
2024/03/27 11:00:22;;;;;;;7.97;3.53;;;486.40;2380.80;;;;;;5075956;28;20021;-75
2024/03/27 11:02:52;;;;;;;5.40;2.92;;;461.70;2380.80;;;;;;5075830;28;20025;-74
2024/03/27 11:05:18;;;;;;;7.78;3.20;;;461.70;2380.80;;;;;;5081160;28;20516;-74
2024/03/27 11:07:46;;;;;;;5.93;3.00;;;486.40;2380.80;;;;;;5096548;28;20031;-75
2024/03/27 11:10:32;;;;;;;7.50;3.05;;;461.60;2380.80;;;;;;5090024;28;20032;-75
2024/03/27 11:12:59;;;;;;;15.80;3.80;;;461.20;2380.80;;;;;;5092199;28;20048;-74
2024/03/27 11:15:26;;;;;;;8.60;2.90;;;461.20;2380.80;;;;;;5078028;28;20390;-73
2024/03/27 11:17:57;;;;;;;9.23;3.40;;;461.10;2380.80;;;;;;5073282;28;20035;-74
2024/03/27 11:20:26;;;;;;;9.40;3.00;;;461.10;2380.80;;;;;;5086701;28;20016;-75
2024/03/27 11:22:56;;;;;;;6.95;3.33;;;461.30;2380.80;;;;;;5099526;28;20384;-74
2024/03/27 11:25:26;;;;;;;8.27;3.17;;;486.40;2380.80;;;;;;5096024;28;20031;-74
2024/03/27 11:27:52;;;;;;;5.60;2.78;;;486.70;2380.80;;;;;;5095631;28;20044;-75
2024/03/27 11:30:19;;;;;;;9.70;3.10;;;487.00;2380.80;;;;;;5095499;28;20477;-75
2024/03/27 11:32:46;;;;;;;12.13;3.72;;;487.20;2329.60;;;;;;5094980;28;20103;-76
2024/03/27 11:35:16;;;;;;;6.00;3.20;;;487.10;2278.40;;;;;;5077342;28;20020;-75
2024/03/27 11:37:42;;;;;;;11.23;3.42;;;512.00;2252.80;;;;;;5077644;28;20472;-74
2024/03/27 11:40:09;;;;;;;9.85;3.53;;;512.10;2252.80;;;;;;5095662;28;20465;-75
2024/03/27 11:42:37;;;;;;;10.30;3.45;;;512.10;2252.80;;;;;;5109018;28;20099;-74
2024/03/27 11:45:04;;;;;;;9.93;3.05;;;512.00;2252.80;;;;;;5108253;28;20031;-75
2024/03/27 11:47:31;;;;;;;8.68;3.15;;;512.00;2304.00;;;;;;5090193;28;20104;-74
2024/03/27 11:49:57;;;;;;;13.60;3.40;;;512.20;2201.60;;;;;;5087420;28;20110;-75
2024/03/27 11:52:25;;;;;;;5.40;2.75;;;512.20;2227.20;;;;;;5114777;28;20090;-74
2024/03/27 11:54:54;;;;;;;8.73;3.45;;;512.30;2278.40;;;;;;5115773;28;20032;-75
2024/03/27 11:57:20;;;;;;;11.23;4.18;;;512.60;2124.80;;;;;;5108515;28;20539;-76
2024/03/27 11:59:46;;;;;;;9.48;3.35;;;512.40;2124.80;;;;;;5109395;28;20028;-77
2024/03/27 12:02:13;;;;;;;10.90;3.05;;;512.60;2124.80;;;;;;5108986;28;20097;-76
2024/03/27 12:04:39;;;;;;;14.23;3.05;;;512.50;2176.00;;;;;;5094829;28;20039;-77
2024/03/27 12:07:05;;;;;;;7.32;3.22;;;512.50;2150.40;;;;;;5084733;28;20034;-77
2024/03/27 12:09:38;;;;;;;8.00;3.72;;;512.50;2150.40;;;;;;5102228;28;20032;-76
2024/03/27 12:12:05;;;;;;;15.23;3.92;;;512.60;2176.00;;;;;;5095823;28;20035;-76
2024/03/27 12:14:31;;;;;;;9.77;3.67;;;512.20;2201.60;;;;;;5095142;28;20024;-75